Coeur d'Alene, ID (83814)

6:24 PM PDT on July 27, 2015 (GMT -0700)
E Elm Ave | | Change Station
CLOSE
Current Station
Personal Weather Station
Location: Coeur DAlene, ID
Elevation: 2195 ft
Nearby Weather Stations

Elev 2195 ft 47.68 °N, 116.77 °W | Updated 1 second ago

Mostly Cloudy
Mostly Cloudy
67.6 °F
Feels Like 67.6 °F
N
0.0
Wind Variable Wind from East
Gusts 0.0 mph

Today
High -- | Low -- °F
--% Chance of Precip.
Yesterday
High -- | Low -- °F
Precip. -- in
5:17 AM 8:28 PM
Waxing Gibbous, 86% visible
Pressure 30.03 in
Visibility 10.0 miles
Clouds Scattered Clouds 10000 ft
Dew Point 49 °F
Humidity 51%
Rainfall 0.00 in
Snow Depth Not available.
UV 1.0 out of 12
Pollen 5.00 out of 12
Air Quality Not available.
Flu Activity Not available.
METAR KCOE 280115Z AUTO 29006KT 10SM SCT100 21/04 A3003 RMK AO1

More Conditions Fewer Conditions

Pressure 30.03 in
Visibility 10.0 miles
Clouds Scattered Clouds 10000 ft
Dew Point 49 °F
Humidity 51%
Rainfall 0.00 in
Snow Depth Not available.
UV 1.0 out of 12
Pollen 5.00 out of 12
Air Quality Not available.
Flu Activity Not available.
METAR KCOE 280115Z AUTO 29006KT 10SM SCT100 21/04 A3003 RMK AO1

More Conditions Fewer Conditions

Nowcast | as of 4:21 PM PDT on July 27, 2015

Scattered showers and thunderstorms will bring brief periods of heavy rain to the Idaho Panhandle and the eastern third of Washington this afternoon. Through 6 PM...the best chance for localized amounts of a tenth of an inch or more will be over north Idaho. Drier air moving into eastern Washington will likely cause showers to become increasingly scattered between 430 PM and 6 PM. Rain chances for the Idaho Panhandle and eastern Washington will rapidly decrease after 8 PM.

×

10-Day Weather Forecast

×

Almanac

Astronomy

Jul. 27, 2015 Rise Set
Actual Time
Civil Twilight
Nautical Twilight
Astronomical Twilight
Moon
Length of Visible Light
Length of Day
Tomorrow will be .
, % of the Moon is Illuminated

Today's Extremes

State Highs State Lows

Community

WunderPhotos

Upload Photos

1,841,753 photos uploaded!

WunderBlogs® & News

Nearby

Air Quality

  Air Quality AQ Index Pollutant
Not available.

Snow Depth

Station Depth Elevation

Earthquake Activity

City Distance Mag. Time & Date
Minimum magnitude displayed is 2.5.

Coastal Water Temperatures

Place Temperature

Stations

Nearby Weather Stations

Station Location Temp. Windchill Dew Point Humidity Wind Precip. Elev Updated Type